createdAt,value
2024-03-02T00:00:23.634Z,9.65
2024-03-02T00:02:51.273Z,11.68
2024-03-02T00:05:23.835Z,6.93
2024-03-02T00:07:59.217Z,8.60
2024-03-02T00:10:32.817Z,8.70
2024-03-02T00:13:00.215Z,8.52
2024-03-02T00:15:45.763Z,7.32
2024-03-02T00:18:15.620Z,6.32
2024-03-02T00:20:43.400Z,4.95
2024-03-02T00:23:15.030Z,10.45
2024-03-02T00:25:47.908Z,9.10
2024-03-02T00:28:20.019Z,4.63
2024-03-02T00:30:58.792Z,4.20
2024-03-02T00:33:32.895Z,5.38
2024-03-02T00:36:02.192Z,4.75
2024-03-02T00:38:30.586Z,4.65
2024-03-02T00:41:00.134Z,7.10
2024-03-02T00:43:39.335Z,4.72
2024-03-02T00:46:07.570Z,3.15
2024-03-02T00:48:38.072Z,6.28
2024-03-02T00:51:05.537Z,6.53
2024-03-02T00:53:36.308Z,2.38
2024-03-02T00:56:04.151Z,5.00
2024-03-02T00:58:31.448Z,4.55
2024-03-02T01:00:58.900Z,5.55
2024-03-02T01:03:26.331Z,5.47
2024-03-02T01:05:53.879Z,8.07
2024-03-02T01:08:21.271Z,5.75
2024-03-02T01:10:48.573Z,9.32
2024-03-02T01:13:15.915Z,3.45
2024-03-02T01:15:43.211Z,7.80
2024-03-02T01:18:10.683Z,10.35
2024-03-02T01:20:38.000Z,5.68
2024-03-02T01:23:05.327Z,7.00
2024-03-02T01:25:32.672Z,4.75
2024-03-02T01:28:00.009Z,5.03
2024-03-02T01:30:27.574Z,4.47
2024-03-02T01:32:54.942Z,10.88
2024-03-02T01:35:22.267Z,5.45
2024-03-02T01:37:49.535Z,7.55
2024-03-02T01:40:16.923Z,4.90
2024-03-02T01:42:45.340Z,6.13
2024-03-02T01:45:12.738Z,4.97
2024-03-02T01:47:40.278Z,6.22
2024-03-02T01:50:08.810Z,8.40
2024-03-02T01:52:36.210Z,3.40
2024-03-02T01:55:03.753Z,5.88
2024-03-02T01:57:32.071Z,7.50
2024-03-02T01:59:59.705Z,7.20
2024-03-02T02:02:27.010Z,7.47
2024-03-02T02:04:54.261Z,6.13
2024-03-02T02:07:21.630Z,8.45
2024-03-02T02:09:48.999Z,11.00
2024-03-02T02:12:17.084Z,5.60
2024-03-02T02:14:51.433Z,4.53
2024-03-02T02:17:18.767Z,4.47
2024-03-02T02:19:46.075Z,11.70
2024-03-02T02:22:13.455Z,10.27
2024-03-02T02:24:43.852Z,4.72
2024-03-02T02:27:11.566Z,8.90
2024-03-02T02:29:39.006Z,10.45
2024-03-02T02:32:06.693Z,5.13
2024-03-02T02:34:35.049Z,10.30
2024-03-02T02:37:02.825Z,4.78
2024-03-02T02:39:30.299Z,7.00
2024-03-02T02:41:57.621Z,7.43
2024-03-02T02:44:25.308Z,7.45
2024-03-02T02:46:53.725Z,6.32
2024-03-02T02:49:20.977Z,5.03
2024-03-02T02:51:48.313Z,5.90
2024-03-02T02:54:15.570Z,9.10
2024-03-02T02:56:42.903Z,7.05
2024-03-02T02:59:10.260Z,11.07
2024-03-02T03:01:37.565Z,13.80
2024-03-02T03:04:05.011Z,14.45
2024-03-02T03:06:32.774Z,8.10
2024-03-02T03:09:00.082Z,8.30
2024-03-02T03:11:27.731Z,8.70
2024-03-02T03:13:55.714Z,8.20
2024-03-02T03:16:22.985Z,5.80
2024-03-02T03:18:53.035Z,5.85
2024-03-02T03:21:20.459Z,10.43
2024-03-02T03:23:47.784Z,8.82
2024-03-02T03:26:15.092Z,8.77
2024-03-02T03:28:44.146Z,14.02
2024-03-02T03:31:12.468Z,4.43
2024-03-02T03:33:39.732Z,10.65
2024-03-02T03:36:07.225Z,9.02
2024-03-02T03:38:34.517Z,10.40
2024-03-02T03:41:01.803Z,7.53
2024-03-02T03:43:29.096Z,4.47
2024-03-02T03:45:56.564Z,12.30
2024-03-02T03:48:23.927Z,6.93
2024-03-02T03:50:51.266Z,7.63
2024-03-02T03:53:18.515Z,9.45
2024-03-02T03:55:47.896Z,14.48
2024-03-02T03:58:15.584Z,8.75
2024-03-02T04:00:43.004Z,6.03
2024-03-02T04:03:10.359Z,7.55
2024-03-02T04:05:37.615Z,10.10
2024-03-02T04:08:05.263Z,5.30
2024-03-02T04:10:32.564Z,12.75
2024-03-02T04:12:59.982Z,7.13
2024-03-02T04:15:27.358Z,11.52
2024-03-02T04:17:54.699Z,7.65
2024-03-02T04:20:22.109Z,7.43
2024-03-02T04:22:49.377Z,16.80
2024-03-02T04:25:16.681Z,11.27
2024-03-02T04:27:43.953Z,8.10
2024-03-02T04:30:11.770Z,9.38
2024-03-02T04:32:40.174Z,10.18
2024-03-02T04:35:11.307Z,26.10
2024-03-02T04:37:38.929Z,5.88
2024-03-02T04:40:09.677Z,8.80
2024-03-02T04:42:37.311Z,6.07
2024-03-02T04:45:04.854Z,8.85
2024-03-02T04:47:32.229Z,14.98
2024-03-02T04:49:59.531Z,10.23
2024-03-02T04:52:26.861Z,4.32
2024-03-02T04:55:12.816Z,5.78
2024-03-02T04:57:40.131Z,5.45
2024-03-02T05:00:10.008Z,10.70
2024-03-02T05:02:37.481Z,8.40
2024-03-02T05:05:05.186Z,10.27
2024-03-02T05:07:32.614Z,12.63
2024-03-02T05:10:00.899Z,8.95
2024-03-02T05:12:46.485Z,7.20
2024-03-02T05:15:15.224Z,6.07
2024-03-02T05:17:46.694Z,9.80
2024-03-02T05:20:14.325Z,14.20
2024-03-02T05:22:41.789Z,8.38
2024-03-02T05:25:10.898Z,11.00
2024-03-02T05:27:38.352Z,11.95
2024-03-02T05:30:07.660Z,11.13
2024-03-02T05:32:35.352Z,10.73
2024-03-02T05:35:04.223Z,7.47
2024-03-02T05:37:31.590Z,8.45
2024-03-02T05:40:00.644Z,12.02
2024-03-02T05:42:29.056Z,13.00
2024-03-02T05:44:56.432Z,9.60
2024-03-02T05:47:23.847Z,7.60
2024-03-02T05:49:51.220Z,12.70
2024-03-02T05:52:18.541Z,7.07
2024-03-02T05:54:45.803Z,17.63
2024-03-02T05:57:35.176Z,9.18
2024-03-02T06:00:02.626Z,10.65
2024-03-02T06:02:29.867Z,6.30
2024-03-02T06:04:57.747Z,9.35
2024-03-02T06:07:25.038Z,8.27
2024-03-02T06:09:53.660Z,11.48
2024-03-02T06:12:21.076Z,9.07
2024-03-02T06:14:48.407Z,11.73
2024-03-02T06:17:16.684Z,12.02
2024-03-02T06:19:43.998Z,17.48
2024-03-02T06:22:11.531Z,5.95
2024-03-02T06:24:39.011Z,13.52
2024-03-02T06:27:07.925Z,5.85
2024-03-02T06:29:35.264Z,7.30
2024-03-02T06:32:02.561Z,8.35
2024-03-02T06:34:29.878Z,7.03
2024-03-02T06:36:57.274Z,10.25
2024-03-02T06:39:24.719Z,11.90
2024-03-02T06:41:52.098Z,5.90
2024-03-02T06:44:19.402Z,4.78
2024-03-02T06:46:46.639Z,7.72
2024-03-02T06:49:13.893Z,6.03
2024-03-02T06:51:43.352Z,8.30
2024-03-02T06:54:10.696Z,6.65
2024-03-02T06:56:39.820Z,4.35
2024-03-02T06:59:07.299Z,4.32
2024-03-02T07:01:34.661Z,13.90
2024-03-02T07:04:02.104Z,12.88
2024-03-02T07:06:29.415Z,5.72
2024-03-02T07:08:56.746Z,5.32
2024-03-02T07:11:24.068Z,6.75
2024-03-02T07:13:51.403Z,10.65
2024-03-02T07:16:34.178Z,6.13
2024-03-02T07:19:02.988Z,5.63
2024-03-02T07:21:31.329Z,7.25
2024-03-02T07:24:00.573Z,5.93
2024-03-02T07:28:58.651Z,8.07
2024-03-02T07:31:25.943Z,7.18
2024-03-02T07:33:53.877Z,4.32
2024-03-02T07:36:21.271Z,7.88
2024-03-02T07:38:51.481Z,6.47
2024-03-02T07:41:18.872Z,7.90
2024-03-02T07:43:46.223Z,9.88
2024-03-02T07:46:14.638Z,7.50
2024-03-02T07:48:44.395Z,2.88
2024-03-02T07:51:11.682Z,7.63
2024-03-02T07:53:39.043Z,4.80
2024-03-02T07:56:07.261Z,11.40
2024-03-02T07:58:36.560Z,6.80
2024-03-02T08:01:04.196Z,4.93
2024-03-02T08:03:33.572Z,5.38
2024-03-02T08:06:01.449Z,6.57
2024-03-02T08:08:28.822Z,3.10
2024-03-02T08:10:58.712Z,4.85
2024-03-02T08:13:26.240Z,7.32
2024-03-02T08:15:53.601Z,3.72
2024-03-02T08:18:21.064Z,4.45
2024-03-02T08:20:48.360Z,6.70
2024-03-02T08:23:15.683Z,6.68
2024-03-02T08:25:43.632Z,5.22
2024-03-02T08:28:12.340Z,1.85
2024-03-02T08:30:39.658Z,8.52
2024-03-02T08:33:07.170Z,1.15
2024-03-02T08:35:37.427Z,4.07
2024-03-02T08:38:05.643Z,2.15
2024-03-02T08:40:33.149Z,2.63
2024-03-02T08:43:00.692Z,3.22
2024-03-02T08:45:28.242Z,4.35
2024-03-02T08:47:55.816Z,1.85
2024-03-02T08:50:23.064Z,8.65
2024-03-02T08:52:50.322Z,3.47
2024-03-02T08:55:17.593Z,3.28
2024-03-02T08:57:46.755Z,2.13
2024-03-02T09:00:14.317Z,2.80
2024-03-02T09:02:41.600Z,2.67
2024-03-02T09:05:09.987Z,3.88
2024-03-02T09:07:37.379Z,5.15
2024-03-02T09:10:05.283Z,5.03
2024-03-02T09:12:33.381Z,4.72
2024-03-02T09:15:07.270Z,3.03
2024-03-02T09:17:34.672Z,3.80
2024-03-02T09:20:06.771Z,3.97
2024-03-02T09:22:34.142Z,5.65
2024-03-02T09:25:01.591Z,5.82
2024-03-02T09:27:31.545Z,4.07
2024-03-02T09:29:58.891Z,8.93
2024-03-02T09:32:26.242Z,5.93
2024-03-02T09:34:54.672Z,3.10
2024-03-02T09:37:21.947Z,4.28
2024-03-02T09:39:49.287Z,11.52
2024-03-02T09:42:16.932Z,6.97
2024-03-02T09:44:44.460Z,4.05
2024-03-02T09:47:11.835Z,2.63
2024-03-02T09:49:40.362Z,5.38
2024-03-02T09:52:08.495Z,7.18
2024-03-02T09:54:35.831Z,5.20
2024-03-02T09:57:06.121Z,2.78
2024-03-02T09:59:33.483Z,7.80
2024-03-02T10:02:03.818Z,2.50
2024-03-02T10:04:36.891Z,3.05
2024-03-02T10:07:10.036Z,5.18
2024-03-02T10:09:37.338Z,2.55
2024-03-02T10:12:12.948Z,5.40
2024-03-02T10:14:40.877Z,5.65
2024-03-02T10:17:10.336Z,3.42
2024-03-02T10:19:40.059Z,3.20
2024-03-02T10:22:09.676Z,1.45
2024-03-02T10:24:42.565Z,3.92
2024-03-02T10:27:24.320Z,2.15
2024-03-02T10:29:51.717Z,5.30
2024-03-02T10:32:19.157Z,8.80
2024-03-02T10:34:48.735Z,4.47
2024-03-02T10:37:16.627Z,5.55
2024-03-02T10:39:44.251Z,3.03
2024-03-02T10:42:13.552Z,2.38
2024-03-02T10:44:41.397Z,5.20
2024-03-02T10:47:10.403Z,4.63
2024-03-02T10:49:39.772Z,4.05
2024-03-02T10:52:07.271Z,5.57
2024-03-02T10:54:38.263Z,1.17
2024-03-02T10:57:08.405Z,3.33
2024-03-02T10:59:48.873Z,5.82
2024-03-02T11:02:18.568Z,2.58
2024-03-02T11:04:49.517Z,4.13
2024-03-02T11:07:20.560Z,3.47
2024-03-02T11:09:58.885Z,4.10
2024-03-02T11:12:56.686Z,1.67
2024-03-02T11:15:27.621Z,2.20
2024-03-02T11:17:56.073Z,0.80
2024-03-02T11:20:24.315Z,2.85
2024-03-02T11:22:52.268Z,2.67
2024-03-02T11:25:27.962Z,0.95
2024-03-02T11:27:55.253Z,2.95
2024-03-02T11:30:35.195Z,2.95
2024-03-02T11:33:10.880Z,1.67
2024-03-02T11:35:44.245Z,12.05
2024-03-02T11:38:13.573Z,4.30
2024-03-02T11:40:42.112Z,1.52
2024-03-02T11:43:10.683Z,1.38
2024-03-02T11:45:41.654Z,4.03
2024-03-02T11:48:13.922Z,1.30
2024-03-02T11:50:45.417Z,2.78
2024-03-02T11:53:13.833Z,4.20
2024-03-02T11:55:42.130Z,5.07
2024-03-02T11:58:09.960Z,3.65
2024-03-02T12:00:37.832Z,2.47
2024-03-02T12:03:09.901Z,1.80
2024-03-02T12:05:37.694Z,1.33
2024-03-02T12:08:10.358Z,0.57
2024-03-02T12:10:38.695Z,1.30
2024-03-02T12:13:08.804Z,1.88
2024-03-02T12:15:38.359Z,0.95
2024-03-02T12:18:06.603Z,1.58
2024-03-02T12:20:34.783Z,2.58
2024-03-02T12:23:04.083Z,2.78
2024-03-02T12:25:33.106Z,1.88
2024-03-02T12:28:02.596Z,4.20
2024-03-02T12:30:36.997Z,2.00
2024-03-02T12:33:04.752Z,2.80
2024-03-02T12:35:32.856Z,2.55
2024-03-02T12:38:00.191Z,2.70
2024-03-02T12:40:28.577Z,1.67
2024-03-02T12:42:55.941Z,1.42
2024-03-02T12:45:26.809Z,1.98
2024-03-02T12:47:54.536Z,3.28
2024-03-02T12:50:22.457Z,2.22
2024-03-02T12:52:56.386Z,2.97
2024-03-02T12:55:25.084Z,0.98
2024-03-02T12:57:53.777Z,0.50
2024-03-02T13:00:22.970Z,0.60
2024-03-02T13:02:52.794Z,1.50
2024-03-02T13:05:21.408Z,1.23
2024-03-02T13:07:50.115Z,0.70
2024-03-02T13:10:18.964Z,1.10
2024-03-02T13:12:46.966Z,1.42
2024-03-02T13:15:18.200Z,2.65
2024-03-02T13:17:49.435Z,0.77
2024-03-02T13:20:18.485Z,3.80
2024-03-02T13:22:45.828Z,1.88
2024-03-02T13:25:13.512Z,2.28
2024-03-02T13:27:41.230Z,0.40
2024-03-02T13:30:09.937Z,2.03
2024-03-02T13:32:37.293Z,1.08
2024-03-02T13:35:05.008Z,1.23
2024-03-02T13:37:32.307Z,2.90
2024-03-02T13:39:59.692Z,2.20
2024-03-02T13:42:28.675Z,1.40
2024-03-02T13:44:56.231Z,1.00
2024-03-02T13:47:23.853Z,1.30
2024-03-02T13:49:51.198Z,6.60
2024-03-02T13:52:18.736Z,3.63
2024-03-02T13:54:48.725Z,2.58
2024-03-02T13:57:16.330Z,3.65
2024-03-02T13:59:44.806Z,1.10
2024-03-02T14:02:13.363Z,1.63
2024-03-02T14:04:41.007Z,1.40
2024-03-02T14:07:09.045Z,0.90
2024-03-02T14:09:39.083Z,3.40
2024-03-02T14:12:07.069Z,3.72
2024-03-02T14:14:34.534Z,3.83
2024-03-02T14:17:05.048Z,1.90
2024-03-02T14:19:33.093Z,2.03
2024-03-02T14:22:00.787Z,0.90
2024-03-02T14:24:30.629Z,1.65
2024-03-02T14:27:06.333Z,2.15
2024-03-02T14:29:44.879Z,1.95
2024-03-02T14:32:12.313Z,3.53
2024-03-02T14:34:40.608Z,2.85
2024-03-02T14:37:08.413Z,2.45
2024-03-02T14:39:36.734Z,1.75
2024-03-02T14:42:04.271Z,2.58
2024-03-02T14:44:31.650Z,3.97
2024-03-02T14:47:00.206Z,2.33
2024-03-02T14:49:28.170Z,0.70
2024-03-02T14:51:55.667Z,1.95
2024-03-02T14:54:23.143Z,1.60
2024-03-02T14:56:51.539Z,2.40
2024-03-02T14:59:18.789Z,0.52
2024-03-02T15:01:46.327Z,1.85
2024-03-02T15:04:13.764Z,1.75
2024-03-02T15:06:41.147Z,3.30
2024-03-02T15:09:09.276Z,3.92
2024-03-02T15:11:36.648Z,4.18
2024-03-02T15:14:04.025Z,2.55
2024-03-02T15:16:31.522Z,3.00
2024-03-02T15:18:58.777Z,2.65
2024-03-02T15:21:26.186Z,4.00
2024-03-02T15:23:53.492Z,3.13
2024-03-02T15:26:20.826Z,4.95
2024-03-02T15:28:48.666Z,3.28
2024-03-02T15:31:16.280Z,2.78
2024-03-02T15:33:43.699Z,2.08
2024-03-02T15:36:11.175Z,2.92
2024-03-02T15:38:42.480Z,3.50
2024-03-02T15:41:10.552Z,5.03
2024-03-02T15:43:40.441Z,3.58
2024-03-02T15:46:08.429Z,3.42
2024-03-02T15:48:35.974Z,2.63
2024-03-02T15:51:06.772Z,1.83
2024-03-02T15:53:34.783Z,1.77
2024-03-02T15:56:03.753Z,3.47
2024-03-02T15:58:32.041Z,1.15
2024-03-02T16:00:59.454Z,3.30
2024-03-02T16:03:26.930Z,2.28
2024-03-02T16:05:54.300Z,3.15
2024-03-02T16:08:21.555Z,2.63
2024-03-02T16:10:48.812Z,2.80
2024-03-02T16:13:16.151Z,2.65
2024-03-02T16:15:43.606Z,4.25
2024-03-02T16:18:10.958Z,1.67
2024-03-02T16:20:38.498Z,7.93
2024-03-02T16:23:05.981Z,4.00
2024-03-02T16:25:38.217Z,2.47
2024-03-02T16:28:05.772Z,5.50
2024-03-02T16:30:33.156Z,4.05
2024-03-02T16:33:00.515Z,2.50
2024-03-02T16:35:27.890Z,1.55
2024-03-02T16:37:55.139Z,4.57
2024-03-02T16:40:22.449Z,1.35
2024-03-02T16:42:50.317Z,4.30
2024-03-02T16:45:17.706Z,1.25
2024-03-02T16:47:45.129Z,1.65
2024-03-02T16:50:13.237Z,1.13
2024-03-02T16:52:40.602Z,1.38
2024-03-02T16:55:08.541Z,6.35
2024-03-02T16:57:36.040Z,3.05
2024-03-02T17:00:03.692Z,1.25
2024-03-02T17:02:31.070Z,1.17
2024-03-02T17:04:58.358Z,1.73
2024-03-02T17:07:27.043Z,2.40
2024-03-02T17:09:57.062Z,2.45
2024-03-02T17:12:24.874Z,1.02
2024-03-02T17:14:52.833Z,1.17
2024-03-02T17:17:20.176Z,1.35
2024-03-02T17:19:47.425Z,2.17
2024-03-02T17:22:14.745Z,2.03
2024-03-02T17:24:42.090Z,2.75
2024-03-02T17:27:09.337Z,1.63
2024-03-02T17:29:36.578Z,2.10
2024-03-02T17:32:04.065Z,3.00
2024-03-02T17:34:31.315Z,4.47
2024-03-02T17:36:58.641Z,2.33
2024-03-02T17:39:25.996Z,3.67
2024-03-02T17:41:54.603Z,2.15
2024-03-02T17:44:22.691Z,2.67
2024-03-02T17:46:50.043Z,2.08
2024-03-02T17:49:20.478Z,1.90
2024-03-02T17:51:48.256Z,3.05
2024-03-02T17:54:15.708Z,3.45
2024-03-02T17:56:43.066Z,3.30
2024-03-02T17:59:10.347Z,5.65
2024-03-02T18:01:37.721Z,7.13
2024-03-02T18:04:09.682Z,5.55
2024-03-02T18:06:37.676Z,5.03
2024-03-02T18:09:05.346Z,6.90
2024-03-02T18:11:32.629Z,9.35
2024-03-02T18:13:59.990Z,8.95
2024-03-02T18:16:27.378Z,12.50
2024-03-02T18:18:54.773Z,7.35
2024-03-02T18:21:22.167Z,10.95
2024-03-02T18:23:49.422Z,7.07
2024-03-02T18:26:18.339Z,10.02
2024-03-02T18:28:46.772Z,16.63
2024-03-02T18:31:14.132Z,16.33
2024-03-02T18:33:41.536Z,13.77
2024-03-02T18:36:09.137Z,14.82
2024-03-02T18:38:36.400Z,17.17
2024-03-02T18:41:03.984Z,12.10
2024-03-02T18:43:31.344Z,10.73
2024-03-02T18:45:58.631Z,16.20
2024-03-02T18:48:25.932Z,12.00
2024-03-02T18:50:53.267Z,16.40
2024-03-02T18:53:22.400Z,10.68
2024-03-02T18:55:50.689Z,19.00
2024-03-02T18:58:18.126Z,14.15
2024-03-02T19:00:45.656Z,19.15
2024-03-02T19:03:13.693Z,16.58
2024-03-02T19:05:40.988Z,17.38
2024-03-02T19:08:09.249Z,15.75
2024-03-02T19:10:36.595Z,17.70
2024-03-02T19:13:03.982Z,12.07
2024-03-02T19:15:31.324Z,9.77
2024-03-02T19:17:58.633Z,6.82
2024-03-02T19:20:25.935Z,9.80
2024-03-02T19:22:54.393Z,9.18
2024-03-02T19:25:22.554Z,10.85
2024-03-02T19:27:49.945Z,9.27
2024-03-02T19:30:17.192Z,6.40
2024-03-02T19:32:44.604Z,12.68
2024-03-02T19:35:14.882Z,9.30
2024-03-02T19:37:42.605Z,7.10
2024-03-02T19:40:11.460Z,8.95
2024-03-02T19:42:39.381Z,8.77
2024-03-02T19:45:07.260Z,11.50
2024-03-02T19:47:34.689Z,12.45
2024-03-02T19:50:02.358Z,8.60
2024-03-02T19:52:29.720Z,6.55
2024-03-02T19:54:57.105Z,6.50
2024-03-02T19:57:25.230Z,7.78
2024-03-02T19:59:52.543Z,7.85
2024-03-02T20:02:21.716Z,4.40
2024-03-02T20:04:51.389Z,7.60
2024-03-02T20:07:18.756Z,7.38
2024-03-02T20:09:47.144Z,7.03
2024-03-02T20:12:14.603Z,7.00
2024-03-02T20:14:42.507Z,4.88
2024-03-02T20:17:09.769Z,8.05
2024-03-02T20:19:40.111Z,6.50
2024-03-02T20:22:07.886Z,5.10
2024-03-02T20:24:35.288Z,4.43
2024-03-02T20:27:05.695Z,4.10
2024-03-02T20:29:33.082Z,3.20
2024-03-02T20:32:00.633Z,5.65
2024-03-02T20:34:28.333Z,6.22
2024-03-02T20:36:57.620Z,5.70
2024-03-02T20:39:24.871Z,3.78
2024-03-02T20:41:52.442Z,2.10
2024-03-02T20:44:20.603Z,7.82
2024-03-02T20:46:49.088Z,3.60
2024-03-02T20:49:17.553Z,4.88
2024-03-02T20:51:44.905Z,2.40
2024-03-02T20:54:12.460Z,6.28
2024-03-02T20:56:42.724Z,4.40
2024-03-02T20:59:10.075Z,5.50
2024-03-02T21:01:38.257Z,5.13
2024-03-02T21:04:05.966Z,3.13
2024-03-02T21:06:33.386Z,10.18
2024-03-02T21:09:00.856Z,3.83
2024-03-02T21:11:28.214Z,3.08
2024-03-02T21:13:57.046Z,4.97
2024-03-02T21:16:24.496Z,6.50
2024-03-02T21:18:51.969Z,6.10
2024-03-02T21:21:19.313Z,9.00
2024-03-02T21:23:46.573Z,6.30
2024-03-02T21:26:13.930Z,4.40
2024-03-02T21:28:41.193Z,4.43
2024-03-02T21:31:08.522Z,5.13
2024-03-02T21:33:35.933Z,6.97
2024-03-02T21:36:05.135Z,4.18
2024-03-02T21:38:32.465Z,5.38
2024-03-02T21:41:00.225Z,3.28
2024-03-02T21:43:32.841Z,6.93
2024-03-02T21:46:00.183Z,4.78
2024-03-02T21:48:27.542Z,4.95
2024-03-02T21:50:56.887Z,3.00
2024-03-02T21:53:24.238Z,6.60
2024-03-02T21:55:51.536Z,3.80
2024-03-02T21:58:18.908Z,8.68
2024-03-02T22:00:46.769Z,4.70
2024-03-02T22:03:14.581Z,7.70
2024-03-02T22:05:42.237Z,5.00
2024-03-02T22:08:09.627Z,6.50
2024-03-02T22:10:36.992Z,5.47
2024-03-02T22:13:04.608Z,8.10
2024-03-02T22:15:31.969Z,5.82
2024-03-02T22:18:01.520Z,4.72
2024-03-02T22:20:28.876Z,6.90
2024-03-02T22:22:56.273Z,8.15
2024-03-02T22:25:23.543Z,7.80
2024-03-02T22:27:56.378Z,9.02
2024-03-02T22:30:24.276Z,7.80
2024-03-02T22:32:52.291Z,10.25
2024-03-02T22:35:22.518Z,5.97
2024-03-02T22:37:51.384Z,8.40
2024-03-02T22:40:18.892Z,11.02
2024-03-02T22:42:46.381Z,7.97
2024-03-02T22:45:14.621Z,8.00
2024-03-02T22:47:41.983Z,5.47
2024-03-02T22:50:09.589Z,4.65
2024-03-02T22:52:37.149Z,6.50
2024-03-02T22:55:04.902Z,10.05
2024-03-02T22:57:32.257Z,12.48
2024-03-02T22:59:59.519Z,4.18
2024-03-02T23:02:26.879Z,6.03
2024-03-02T23:04:54.227Z,7.90
2024-03-02T23:07:23.300Z,10.38
2024-03-02T23:09:50.807Z,6.13
2024-03-02T23:12:18.102Z,5.95
2024-03-02T23:14:45.478Z,6.72
2024-03-02T23:17:12.748Z,6.47
2024-03-02T23:19:40.124Z,5.28
2024-03-02T23:22:08.586Z,6.50
2024-03-02T23:24:35.857Z,5.20
2024-03-02T23:27:05.893Z,6.88
2024-03-02T23:29:33.906Z,10.90
2024-03-02T23:32:01.257Z,5.57
2024-03-02T23:34:29.653Z,6.13
2024-03-02T23:36:57.019Z,5.25
2024-03-02T23:39:43.050Z,4.75
2024-03-02T23:42:10.717Z,7.22
2024-03-02T23:44:37.997Z,7.65
2024-03-02T23:47:06.949Z,5.38
2024-03-02T23:49:34.461Z,4.80
2024-03-02T23:52:01.871Z,8.00
2024-03-02T23:54:29.184Z,2.58
2024-03-02T23:56:56.799Z,5.22
2024-03-02T23:59:24.056Z,6.65
